Time;durP1;ratioP1;P1;durP2;ratioP2;P2;SDS_P1;SDS_P2;PMS_P1;PMS_P2;Temp;Humidity;BMP_temperature;BMP_pressure;BME280_temperature;BME280_humidity;BME280_pressure;Samples;Min_cycle;Max_cycle;Signal;HPM_P1;HPM_P2
2022/09/18 00:01:00;;;;;;;6.63;1.65;;;14.10;74.20;;;;;;5089596;28;20121;-65
2022/09/18 00:03:27;;;;;;;3.67;1.48;;;14.10;74.00;;;;;;5089999;28;20024;-72
2022/09/18 00:05:53;;;;;;;1.15;0.77;;;14.10;74.00;;;;;;5089017;28;20085;-72
2022/09/18 00:08:18;;;;;;;3.75;1.10;;;14.20;74.10;;;;;;5088912;28;20179;-73
2022/09/18 00:10:48;;;;;;;0.65;0.60;;;14.30;74.00;;;;;;5097997;28;20455;-67
2022/09/18 00:13:14;;;;;;;1.90;1.00;;;14.30;74.00;;;;;;5089711;28;20028;-70
2022/09/18 00:15:41;;;;;;;1.60;1.13;;;14.30;74.00;;;;;;5101204;28;20039;-64
2022/09/18 00:18:07;;;;;;;0.60;0.60;;;14.20;74.30;;;;;;5099711;28;20034;-65
2022/09/18 00:20:35;;;;;;;2.42;0.60;;;14.20;74.30;;;;;;5093722;28;20065;-66
2022/09/18 00:23:00;;;;;;;2.05;1.35;;;14.20;74.30;;;;;;5099390;28;20039;-66
2022/09/18 00:25:26;;;;;;;0.93;0.77;;;14.30;74.40;;;;;;5093470;28;20035;-66
2022/09/18 00:27:52;;;;;;;1.10;0.60;;;14.20;74.70;;;;;;5088138;28;20023;-66
2022/09/18 00:30:18;;;;;;;2.05;0.47;;;14.10;74.80;;;;;;5088109;28;20479;-73
2022/09/18 00:32:43;;;;;;;0.98;0.65;;;14.10;74.90;;;;;;5087934;28;20287;-72
2022/09/18 00:35:09;;;;;;;0.77;0.55;;;14.10;74.80;;;;;;5086191;28;20040;-72
2022/09/18 00:37:35;;;;;;;1.65;1.20;;;14.10;74.80;;;;;;5099842;28;20028;-72
2022/09/18 00:40:01;;;;;;;2.05;0.70;;;14.20;74.90;;;;;;5096268;28;20032;-73
2022/09/18 00:42:26;;;;;;;0.95;0.93;;;14.10;75.00;;;;;;5092099;28;20028;-67
2022/09/18 00:44:52;;;;;;;2.28;1.08;;;14.10;75.10;;;;;;5087030;28;20469;-72
2022/09/18 00:47:40;;;;;;;0.45;0.43;;;14.20;75.00;;;;;;5093043;28;20032;-72
2022/09/18 00:50:15;;;;;;;2.50;0.70;;;14.20;74.80;;;;;;5094255;28;20364;-73
2022/09/18 00:52:56;;;;;;;0.73;0.63;;;14.30;74.90;;;;;;5091039;28;20016;-67
2022/09/18 00:55:27;;;;;;;1.52;1.02;;;14.30;74.90;;;;;;5089582;28;20035;-66
2022/09/18 00:57:56;;;;;;;2.72;1.25;;;14.20;75.10;;;;;;5093449;28;20019;-65
2022/09/18 01:00:22;;;;;;;1.88;1.08;;;14.20;75.50;;;;;;5089426;28;20036;-65
2022/09/18 01:02:48;;;;;;;1.90;0.85;;;14.20;75.50;;;;;;5088168;28;20038;-65
2022/09/18 01:05:31;;;;;;;0.77;0.75;;;14.10;75.70;;;;;;5100035;28;20566;-65
2022/09/18 01:08:22;;;;;;;0.77;0.75;;;14.10;75.80;;;;;;5096046;28;20143;-71
2022/09/18 01:11:10;;;;;;;3.90;1.08;;;14.10;75.80;;;;;;5091996;28;20027;-65
2022/09/18 01:13:59;;;;;;;1.65;0.95;;;14.20;75.90;;;;;;5086655;28;20024;-65
2022/09/18 01:16:46;;;;;;;2.15;0.70;;;14.20;76.00;;;;;;5087666;28;20040;-72
2022/09/18 01:19:30;;;;;;;1.63;0.63;;;14.10;76.20;;;;;;5094677;28;20031;-71
2022/09/18 01:22:30;;;;;;;0.85;0.50;;;14.10;76.90;;;;;;5090654;28;20036;-72
2022/09/18 01:25:15;;;;;;;0.60;0.60;;;14.10;76.30;;;;;;5091317;28;20062;-65
2022/09/18 01:27:47;;;;;;;0.73;0.57;;;14.10;76.50;;;;;;5083658;28;20017;-66
2022/09/18 01:30:13;;;;;;;3.58;0.55;;;14.00;76.90;;;;;;5096648;28;20090;-66
2022/09/18 01:32:40;;;;;;;1.77;1.08;;;14.00;77.00;;;;;;5101198;28;20066;-65
2022/09/18 01:35:13;;;;;;;2.78;0.68;;;14.00;77.00;;;;;;5097871;28;20107;-66
2022/09/18 01:38:01;;;;;;;4.45;1.20;;;14.00;76.90;;;;;;5101206;28;20028;-66
2022/09/18 01:40:39;;;;;;;1.60;0.50;;;14.10;76.60;;;;;;5099474;28;20118;-72
2022/09/18 01:43:10;;;;;;;1.40;0.90;;;14.10;76.70;;;;;;5107743;28;20040;-72
2022/09/18 01:45:44;;;;;;;0.45;0.40;;;14.10;76.70;;;;;;5104879;28;20039;-72
2022/09/18 01:48:18;;;;;;;0.60;0.60;;;14.10;76.50;;;;;;5094257;28;20054;-72
2022/09/18 01:50:53;;;;;;;4.43;0.75;;;14.20;76.50;;;;;;5099860;28;20019;-66
2022/09/18 01:53:26;;;;;;;0.95;0.73;;;14.10;76.50;;;;;;5096951;28;20072;-66
2022/09/18 01:56:00;;;;;;;1.38;0.57;;;14.10;76.60;;;;;;5107715;28;20053;-66
2022/09/18 01:58:27;;;;;;;0.77;0.60;;;14.10;76.60;;;;;;5101612;28;20085;-66
2022/09/18 02:00:59;;;;;;;3.83;1.20;;;14.10;76.50;;;;;;5092107;28;20505;-66
2022/09/18 02:03:30;;;;;;;0.77;0.57;;;14.10;76.80;;;;;;5092159;28;20482;-66
2022/09/18 02:06:28;;;;;;;1.25;0.75;;;14.10;76.80;;;;;;5091006;28;20016;-66
2022/09/18 02:08:55;;;;;;;1.17;0.60;;;14.10;77.00;;;;;;5079174;28;20495;-67
2022/09/18 02:11:21;;;;;;;0.43;0.40;;;14.00;77.40;;;;;;5092195;28;20095;-67
2022/09/18 02:14:16;;;;;;;0.43;0.32;;;14.00;77.50;;;;;;5092032;28;20521;-66
2022/09/18 02:17:01;;;;;;;0.93;0.60;;;14.00;77.50;;;;;;5082334;28;20032;-66
2022/09/18 02:19:41;;;;;;;8.40;1.38;;;14.00;77.80;;;;;;5092017;28;20066;-69
2022/09/18 02:22:10;;;;;;;5.13;1.45;;;14.00;78.00;;;;;;5092565;28;20043;-66
2022/09/18 02:24:38;;;;;;;4.55;0.47;;;13.90;78.20;;;;;;5091687;28;20063;-66
2022/09/18 02:27:06;;;;;;;1.17;0.60;;;13.80;78.50;;;;;;5091542;28;20024;-66
2022/09/18 02:29:33;;;;;;;1.23;0.85;;;13.80;78.90;;;;;;5091764;28;20028;-70
2022/09/18 02:32:00;;;;;;;6.47;0.80;;;13.80;79.10;;;;;;5100033;28;20020;-67
2022/09/18 02:34:26;;;;;;;5.95;0.52;;;13.80;79.40;;;;;;5092464;28;20036;-67
2022/09/18 02:37:27;;;;;;;0.95;0.75;;;13.70;79.40;;;;;;5102853;28;20031;-75
2022/09/18 02:40:33;;;;;;;2.25;1.00;;;13.80;79.40;;;;;;5095282;28;20027;-70
2022/09/18 02:43:26;;;;;;;5.00;0.85;;;13.80;79.40;;;;;;5091387;28;20145;-66
2022/09/18 02:46:27;;;;;;;7.18;0.73;;;13.80;79.20;;;;;;5090261;28;20040;-70
2022/09/18 02:49:13;;;;;;;2.03;1.10;;;13.80;79.40;;;;;;5084025;28;20440;-66
2022/09/18 02:52:01;;;;;;;2.85;0.80;;;13.70;79.80;;;;;;5091372;28;20402;-67
2022/09/18 02:54:36;;;;;;;0.85;0.60;;;13.70;80.00;;;;;;5082447;28;20024;-67
2022/09/18 02:57:18;;;;;;;1.98;0.68;;;13.70;80.00;;;;;;5089369;28;20562;-71
2022/09/18 02:59:46;;;;;;;;;;;13.70;80.00;;;;;;5092028;28;20032;-67
2022/09/18 03:02:15;;;;;;;1.92;0.70;;;13.80;80.10;;;;;;5089371;28;19995;-66
2022/09/18 03:04:40;;;;;;;2.65;0.60;;;13.70;79.90;;;;;;5088742;28;20517;-67
2022/09/18 03:07:06;;;;;;;3.22;0.65;;;13.80;79.90;;;;;;5090663;28;20028;-67
2022/09/18 03:09:33;;;;;;;2.30;0.50;;;13.80;79.80;;;;;;5089192;28;20494;-67
2022/09/18 03:12:01;;;;;;;1.20;0.55;;;13.80;79.80;;;;;;5090776;28;20391;-67
2022/09/18 03:14:27;;;;;;;1.17;0.60;;;13.90;79.90;;;;;;5088172;28;20503;-67
2022/09/18 03:16:52;;;;;;;1.02;0.55;;;13.90;79.90;;;;;;5103977;28;20027;-67
2022/09/18 03:19:18;;;;;;;5.60;0.98;;;13.90;79.80;;;;;;5098736;28;20060;-67
2022/09/18 03:21:44;;;;;;;1.35;0.88;;;13.90;79.70;;;;;;5090173;28;20582;-67
2022/09/18 03:24:10;;;;;;;0.68;0.63;;;13.90;79.60;;;;;;5089918;28;20032;-67
2022/09/18 03:26:36;;;;;;;2.38;0.63;;;13.90;79.60;;;;;;5092830;28;20495;-67
2022/09/18 03:29:09;;;;;;;0.68;0.68;;;13.90;79.60;;;;;;5088843;28;20032;-67
2022/09/18 03:31:35;;;;;;;0.50;0.50;;;13.90;79.80;;;;;;5086649;28;20017;-71
2022/09/18 03:34:01;;;;;;;2.75;0.52;;;13.90;79.80;;;;;;5092102;28;20035;-71
2022/09/18 03:36:26;;;;;;;1.65;0.60;;;13.90;79.80;;;;;;5088336;28;20035;-67
2022/09/18 03:38:52;;;;;;;0.63;0.57;;;13.80;80.00;;;;;;5077085;28;20028;-67
2022/09/18 03:41:17;;;;;;;0.88;0.55;;;13.80;80.00;;;;;;5081271;28;20074;-71
2022/09/18 03:43:43;;;;;;;3.30;0.93;;;13.80;80.10;;;;;;5075701;28;20024;-67
2022/09/18 03:46:09;;;;;;;3.17;0.52;;;13.80;80.10;;;;;;5076733;28;20053;-66
2022/09/18 03:48:34;;;;;;;2.58;1.08;;;13.80;80.30;;;;;;5075275;28;20565;-71
2022/09/18 03:51:00;;;;;;;0.93;0.50;;;13.70;80.40;;;;;;5077457;28;20058;-67
2022/09/18 03:53:26;;;;;;;2.15;0.43;;;13.80;80.40;;;;;;5073441;28;20052;-67
2022/09/18 03:55:51;;;;;;;2.15;1.10;;;13.80;80.30;;;;;;5079695;28;20070;-67
2022/09/18 03:58:17;;;;;;;4.68;0.98;;;13.80;80.30;;;;;;5088007;28;20024;-67
2022/09/18 04:00:43;;;;;;;0.77;0.65;;;13.80;80.30;;;;;;5089992;28;20587;-67
2022/09/18 04:03:09;;;;;;;1.65;0.85;;;13.70;80.30;;;;;;5089872;28;20573;-67
2022/09/18 04:05:35;;;;;;;0.63;0.50;;;13.70;80.30;;;;;;5089451;28;20032;-71
2022/09/18 04:08:01;;;;;;;0.88;0.38;;;13.70;80.30;;;;;;5089717;28;20506;-71
2022/09/18 04:10:26;;;;;;;0.30;0.30;;;13.70;80.30;;;;;;5097883;28;20020;-67
2022/09/18 04:12:52;;;;;;;2.15;0.85;;;13.70;80.30;;;;;;5090098;28;20031;-67
2022/09/18 04:15:18;;;;;;;0.65;0.50;;;13.70;80.30;;;;;;5089170;28;20032;-67
2022/09/18 04:17:44;;;;;;;3.13;1.40;;;13.70;80.20;;;;;;5089369;28;20028;-73
2022/09/18 04:20:10;;;;;;;0.40;0.40;;;13.70;80.20;;;;;;5101858;28;20068;-71
2022/09/18 04:22:36;;;;;;;1.02;0.80;;;13.70;80.30;;;;;;5073786;28;20063;-73
2022/09/18 04:25:03;;;;;;;2.67;0.73;;;13.70;80.40;;;;;;5071992;28;20028;-71
2022/09/18 04:27:29;;;;;;;1.15;0.75;;;13.70;80.40;;;;;;5050815;28;20020;-70
2022/09/18 04:29:55;;;;;;;0.75;0.30;;;13.70;80.50;;;;;;5069777;28;20032;-70
2022/09/18 04:32:20;;;;;;;1.30;0.60;;;13.70;80.60;;;;;;5067695;28;20383;-70
2022/09/18 04:34:46;;;;;;;2.20;0.82;;;13.70;81.20;;;;;;5072036;28;20126;-71
2022/09/18 04:37:12;;;;;;;1.02;0.68;;;13.70;80.50;;;;;;5071575;28;20033;-71
2022/09/18 04:39:37;;;;;;;0.50;0.40;;;13.70;80.50;;;;;;5074528;28;20028;-71
2022/09/18 04:42:04;;;;;;;3.42;0.43;;;13.70;80.70;;;;;;5072644;28;20032;-66
2022/09/18 04:44:30;;;;;;;1.00;0.47;;;13.60;80.60;;;;;;5082513;28;20531;-68
2022/09/18 04:46:56;;;;;;;7.13;0.65;;;13.60;80.70;;;;;;5068335;28;20032;-72
2022/09/18 04:49:21;;;;;;;0.82;0.50;;;13.60;80.80;;;;;;5070717;28;20025;-72
2022/09/18 04:51:47;;;;;;;0.52;0.50;;;13.60;81.10;;;;;;5076683;28;20481;-65
2022/09/18 04:54:13;;;;;;;0.63;0.60;;;13.50;81.20;;;;;;5106962;28;20448;-67
2022/09/18 04:56:39;;;;;;;0.93;0.55;;;13.50;81.30;;;;;;5097608;28;20028;-67
2022/09/18 04:59:05;;;;;;;0.40;0.40;;;13.60;81.30;;;;;;5088110;28;20028;-67
2022/09/18 05:01:32;;;;;;;2.15;0.50;;;13.60;81.30;;;;;;5088898;28;20424;-65
2022/09/18 05:03:57;;;;;;;0.60;0.50;;;13.60;81.30;;;;;;5068854;28;20028;-65
2022/09/18 05:06:23;;;;;;;0.68;0.60;;;13.60;81.30;;;;;;5083792;28;20040;-65
2022/09/18 05:08:49;;;;;;;0.40;0.38;;;13.50;81.20;;;;;;5091642;28;20491;-68
2022/09/18 05:11:14;;;;;;;1.67;0.90;;;13.50;81.20;;;;;;5101431;28;20036;-70
2022/09/18 05:13:42;;;;;;;0.60;0.50;;;13.60;81.10;;;;;;5095379;28;20028;-69
2022/09/18 05:16:08;;;;;;;0.35;0.35;;;13.60;81.00;;;;;;5102584;28;20055;-70
2022/09/18 05:18:33;;;;;;;1.55;0.93;;;13.60;81.00;;;;;;5092743;28;20462;-70
2022/09/18 05:21:03;;;;;;;1.48;0.57;;;13.70;81.10;;;;;;5092414;28;20056;-70
2022/09/18 05:23:29;;;;;;;0.65;0.30;;;13.70;81.10;;;;;;5072423;28;20028;-71
2022/09/18 05:25:54;;;;;;;0.75;0.47;;;13.60;81.00;;;;;;5097724;28;20031;-70
2022/09/18 05:28:20;;;;;;;2.67;0.85;;;13.70;81.00;;;;;;5100227;28;20032;-71
2022/09/18 05:30:46;;;;;;;0.80;0.80;;;13.60;80.90;;;;;;5092631;28;20028;-70
2022/09/18 05:33:12;;;;;;;0.60;0.50;;;13.60;81.10;;;;;;5092845;28;20104;-70
2022/09/18 05:35:38;;;;;;;0.63;0.47;;;13.60;81.30;;;;;;5090790;28;20485;-66
2022/09/18 05:38:05;;;;;;;2.90;1.02;;;13.60;81.30;;;;;;5092721;28;20028;-66
2022/09/18 05:40:33;;;;;;;1.02;0.60;;;13.50;81.30;;;;;;5091363;28;20115;-68
2022/09/18 05:42:59;;;;;;;0.45;0.40;;;13.60;81.30;;;;;;5091351;28;20016;-67
2022/09/18 05:45:25;;;;;;;0.50;0.50;;;13.60;81.30;;;;;;5095295;28;20048;-67
2022/09/18 05:47:55;;;;;;;0.47;0.47;;;13.60;81.30;;;;;;5092497;28;20078;-67
2022/09/18 05:50:22;;;;;;;1.38;0.30;;;13.60;81.20;;;;;;5091975;28;20494;-67
2022/09/18 05:53:01;;;;;;;2.00;0.77;;;13.60;81.20;;;;;;5092053;28;20531;-67
2022/09/18 05:55:28;;;;;;;0.38;0.38;;;13.60;81.20;;;;;;5082189;28;20517;-72
2022/09/18 05:57:55;;;;;;;0.98;0.35;;;13.60;81.20;;;;;;5098280;28;20032;-72
2022/09/18 06:00:21;;;;;;;0.65;0.20;;;13.50;81.20;;;;;;5092699;28;20506;-72
2022/09/18 06:02:57;;;;;;;1.60;0.45;;;13.50;81.20;;;;;;5099401;28;20111;-72
2022/09/18 06:05:23;;;;;;;1.27;0.50;;;13.60;81.10;;;;;;5080662;28;20093;-72
2022/09/18 06:07:50;;;;;;;2.25;0.40;;;13.50;81.20;;;;;;5101093;28;20047;-72
2022/09/18 06:10:18;;;;;;;2.45;0.65;;;13.50;81.10;;;;;;5093007;28;20074;-72
2022/09/18 06:12:44;;;;;;;1.83;0.60;;;13.50;81.10;;;;;;5101592;28;20107;-72
2022/09/18 06:15:11;;;;;;;0.35;0.30;;;13.50;81.10;;;;;;5091632;28;20032;-71
2022/09/18 06:17:37;;;;;;;0.77;0.77;;;13.50;81.00;;;;;;5089726;28;20050;-72
2022/09/18 06:20:04;;;;;;;3.35;0.47;;;13.60;81.00;;;;;;5091846;28;20421;-71
2022/09/18 06:22:31;;;;;;;1.65;0.65;;;13.50;81.00;;;;;;5090137;28;20089;-71
2022/09/18 06:24:57;;;;;;;0.38;0.30;;;13.60;80.90;;;;;;5090279;28;20551;-71
2022/09/18 06:27:23;;;;;;;7.40;0.70;;;13.60;80.80;;;;;;5091121;28;20016;-67
2022/09/18 06:29:49;;;;;;;0.20;0.20;;;13.60;80.80;;;;;;5091179;28;20028;-67
2022/09/18 06:32:14;;;;;;;0.70;0.43;;;13.60;80.80;;;;;;5091619;28;20027;-68
2022/09/18 06:34:40;;;;;;;0.30;0.30;;;13.60;80.80;;;;;;5091445;28;20040;-72
2022/09/18 06:37:08;;;;;;;0.65;0.30;;;13.60;80.90;;;;;;5090958;28;20028;-71
2022/09/18 06:39:34;;;;;;;1.13;0.70;;;13.60;80.80;;;;;;5090565;28;20420;-71
2022/09/18 06:42:00;;;;;;;3.03;0.28;;;13.70;80.80;;;;;;5090209;28;20040;-71
2022/09/18 06:44:25;;;;;;;0.40;0.40;;;13.70;80.70;;;;;;5101506;28;20040;-71
2022/09/18 06:46:51;;;;;;;1.50;0.57;;;13.70;80.50;;;;;;5073181;28;20032;-71
2022/09/18 06:49:17;;;;;;;4.75;0.43;;;13.80;80.50;;;;;;5100226;28;20024;-71
2022/09/18 06:51:44;;;;;;;2.72;0.95;;;13.80;80.40;;;;;;5090993;28;20050;-67
2022/09/18 06:54:12;;;;;;;1.08;0.77;;;13.80;80.50;;;;;;5079143;28;20025;-67
2022/09/18 06:56:38;;;;;;;5.25;0.75;;;13.90;80.50;;;;;;5088776;28;20028;-67
2022/09/18 06:59:03;;;;;;;0.85;0.50;;;13.90;80.50;;;;;;5094941;28;20024;-72
2022/09/18 07:01:29;;;;;;;0.32;0.32;;;13.90;80.50;;;;;;5089547;28;20399;-70
2022/09/18 07:03:55;;;;;;;2.20;0.75;;;14.00;80.50;;;;;;5089090;28;20209;-71
2022/09/18 07:06:21;;;;;;;2.85;0.50;;;14.10;80.40;;;;;;5090638;28;20130;-70
2022/09/18 07:08:46;;;;;;;0.68;0.50;;;14.10;80.30;;;;;;5080225;28;20074;-70
2022/09/18 07:11:12;;;;;;;0.30;0.30;;;14.10;80.20;;;;;;5090534;28;20040;-71
2022/09/18 07:13:38;;;;;;;1.83;0.77;;;14.10;80.10;;;;;;5100540;28;20028;-70
2022/09/18 07:16:04;;;;;;;2.17;0.65;;;14.00;80.30;;;;;;5089439;28;20244;-70
2022/09/18 07:18:29;;;;;;;0.68;0.40;;;14.00;80.30;;;;;;5089037;28;20031;-71
2022/09/18 07:20:58;;;;;;;0.30;0.30;;;14.00;80.30;;;;;;5094752;28;20044;-70
2022/09/18 07:23:24;;;;;;;0.20;0.20;;;14.00;80.10;;;;;;5098758;28;20466;-71
2022/09/18 07:25:49;;;;;;;0.70;0.50;;;14.00;80.20;;;;;;5090346;28;20073;-71
2022/09/18 07:28:15;;;;;;;1.42;0.45;;;14.10;80.20;;;;;;5091327;28;20063;-66
2022/09/18 07:30:41;;;;;;;0.40;0.40;;;14.10;80.10;;;;;;5086585;28;20028;-66
2022/09/18 07:33:08;;;;;;;4.13;0.70;;;14.10;80.10;;;;;;5090397;28;20034;-67
2022/09/18 07:35:34;;;;;;;0.52;0.35;;;14.10;80.20;;;;;;5089194;28;20028;-71
2022/09/18 07:38:02;;;;;;;1.85;0.77;;;14.10;80.20;;;;;;5090521;28;20486;-67
2022/09/18 07:40:28;;;;;;;0.20;0.20;;;14.10;80.20;;;;;;5091192;28;20069;-67
2022/09/18 07:42:59;;;;;;;0.80;0.40;;;14.20;80.10;;;;;;5088249;28;20032;-67
2022/09/18 07:45:25;;;;;;;0.90;0.57;;;14.20;80.20;;;;;;5088280;28;20072;-72
2022/09/18 07:47:51;;;;;;;0.93;0.60;;;14.20;80.20;;;;;;5077518;28;20551;-73
2022/09/18 07:50:16;;;;;;;0.63;0.30;;;14.10;80.00;;;;;;5077679;28;20028;-73
2022/09/18 07:52:54;;;;;;;1.13;0.47;;;14.00;80.30;;;;;;5077774;28;20470;-73
2022/09/18 07:55:21;;;;;;;1.13;0.60;;;14.00;80.50;;;;;;5073005;28;20039;-73
2022/09/18 07:57:52;;;;;;;1.35;0.82;;;14.00;81.20;;;;;;5090281;28;20386;-74
2022/09/18 08:00:17;;;;;;;3.60;0.75;;;14.00;80.70;;;;;;5083776;28;20039;-75
2022/09/18 08:02:43;;;;;;;0.82;0.60;;;14.00;80.80;;;;;;5076209;28;20048;-74
2022/09/18 08:05:09;;;;;;;0.40;0.30;;;14.10;80.80;;;;;;5078303;28;20027;-77
2022/09/18 08:07:35;;;;;;;0.70;0.25;;;14.10;80.80;;;;;;5073388;28;20093;-76
2022/09/18 08:10:01;;;;;;;1.65;0.63;;;14.20;80.70;;;;;;5077308;28;20458;-75
2022/09/18 08:12:27;;;;;;;2.72;0.57;;;14.20;80.70;;;;;;5067752;28;20391;-75
2022/09/18 08:14:52;;;;;;;1.17;0.50;;;14.20;80.80;;;;;;5075545;28;20028;-72
2022/09/18 08:17:18;;;;;;;2.83;0.50;;;14.30;80.80;;;;;;5080678;28;20040;-72
2022/09/18 08:19:44;;;;;;;0.73;0.40;;;14.30;80.80;;;;;;5080617;28;20411;-72
2022/09/18 08:22:09;;;;;;;1.70;0.68;;;14.30;80.80;;;;;;5070787;28;20513;-74
2022/09/18 08:24:35;;;;;;;5.25;0.80;;;14.30;80.70;;;;;;5084083;28;20039;-73
2022/09/18 08:27:02;;;;;;;0.93;0.50;;;14.20;80.90;;;;;;5069867;28;20032;-73
2022/09/18 08:29:31;;;;;;;0.65;0.30;;;14.20;81.00;;;;;;5086025;28;20120;-74
2022/09/18 08:31:57;;;;;;;0.50;0.30;;;14.20;80.90;;;;;;5073029;28;20032;-73
2022/09/18 08:34:23;;;;;;;0.30;0.30;;;14.30;80.90;;;;;;5073845;28;20455;-73
2022/09/18 08:36:49;;;;;;;0.55;0.30;;;14.30;80.90;;;;;;5075160;28;20364;-73
2022/09/18 08:39:14;;;;;;;1.33;0.75;;;14.40;80.70;;;;;;5069940;28;20086;-74
2022/09/18 08:41:58;;;;;;;0.22;0.22;;;14.50;80.60;;;;;;5081851;28;20036;-73
2022/09/18 08:44:29;;;;;;;1.35;0.70;;;14.60;80.40;;;;;;5070712;28;20044;-73
2022/09/18 08:47:04;;;;;;;3.40;0.40;;;14.50;80.20;;;;;;5069820;28;20017;-74
2022/09/18 08:49:54;;;;;;;0.40;0.30;;;14.60;80.10;;;;;;5087506;28;20475;-74
2022/09/18 08:52:31;;;;;;;2.30;0.63;;;14.60;80.10;;;;;;5065182;28;20028;-73
2022/09/18 08:55:03;;;;;;;0.45;0.30;;;14.60;80.00;;;;;;5070869;28;20020;-71
2022/09/18 08:57:43;;;;;;;0.93;0.60;;;14.60;80.10;;;;;;5074618;28;20112;-70
2022/09/18 09:00:22;;;;;;;0.32;0.20;;;14.50;80.10;;;;;;5072948;28;20033;-70
2022/09/18 09:02:51;;;;;;;1.30;0.90;;;14.40;80.40;;;;;;5071535;28;20032;-74
2022/09/18 09:05:20;;;;;;;0.32;0.32;;;14.30;80.60;;;;;;5077615;28;20395;-74
2022/09/18 09:08:04;;;;;;;2.65;0.65;;;14.30;80.80;;;;;;5071941;28;20505;-75
2022/09/18 09:10:46;;;;;;;0.35;0.32;;;14.30;80.90;;;;;;5075870;28;20467;-71
2022/09/18 09:13:23;;;;;;;0.45;0.20;;;14.30;81.10;;;;;;5071947;28;20032;-71
2022/09/18 09:15:58;;;;;;;0.28;0.28;;;14.30;81.10;;;;;;5068402;28;20033;-74
2022/09/18 09:18:50;;;;;;;5.93;0.40;;;14.30;81.20;;;;;;5084432;28;20109;-71
2022/09/18 09:21:51;;;;;;;0.75;0.22;;;14.30;81.00;;;;;;5048335;28;20040;-71
2022/09/18 09:24:35;;;;;;;0.98;0.73;;;14.30;81.00;;;;;;5080817;28;20386;-71
2022/09/18 09:27:23;;;;;;;1.02;0.50;;;14.30;81.00;;;;;;5076223;28;20029;-75
2022/09/18 09:29:59;;;;;;;2.15;0.20;;;14.40;80.90;;;;;;5077675;28;20024;-74
2022/09/18 09:32:43;;;;;;;0.40;0.40;;;14.30;80.80;;;;;;5081102;28;20021;-74
2022/09/18 09:35:15;;;;;;;0.38;0.38;;;14.50;80.90;;;;;;5080878;28;20032;-74
2022/09/18 09:37:44;;;;;;;0.35;0.20;;;14.50;80.90;;;;;;5075857;28;20056;-73
2022/09/18 09:40:27;;;;;;;0.73;0.68;;;14.60;80.80;;;;;;5083455;28;20064;-72
2022/09/18 09:43:00;;;;;;;;;;;14.60;80.80;;;;;;5076970;28;20042;-73
2022/09/18 09:45:37;;;;;;;0.47;0.40;;;14.50;81.10;;;;;;5078547;28;19932;-73
2022/09/18 09:48:15;;;;;;;1.10;0.73;;;14.60;81.20;;;;;;5081444;28;20511;-73
2022/09/18 09:51:04;;;;;;;3.05;0.93;;;14.60;81.50;;;;;;5079343;28;20030;-73
2022/09/18 09:53:30;;;;;;;0.50;0.50;;;14.60;81.40;;;;;;5089517;28;20656;-73
2022/09/18 09:56:08;;;;;;;0.45;0.38;;;14.70;81.40;;;;;;5090355;28;20406;-72
2022/09/18 09:58:55;;;;;;;0.63;0.60;;;14.80;81.30;;;;;;5087230;28;20106;-75
2022/09/18 10:01:48;;;;;;;0.60;0.57;;;14.80;81.70;;;;;;5097521;28;20028;-71
2022/09/18 10:04:29;;;;;;;5.30;0.43;;;14.90;81.60;;;;;;5086030;28;20033;-72
2022/09/18 10:07:36;;;;;;;1.27;0.90;;;15.00;81.80;;;;;;5087016;28;20031;-73
2022/09/18 10:10:06;;;;;;;0.75;0.50;;;15.10;81.50;;;;;;5085123;28;20036;-70
2022/09/18 10:12:54;;;;;;;0.85;0.60;;;15.00;81.30;;;;;;5074104;28;20025;-75
2022/09/18 10:15:35;;;;;;;0.63;0.63;;;15.10;81.40;;;;;;5087673;28;20126;-73
2022/09/18 10:18:04;;;;;;;0.32;0.32;;;15.20;81.30;;;;;;5095982;28;20028;-79
2022/09/18 10:20:31;;;;;;;0.20;0.20;;;15.10;81.20;;;;;;5085014;28;20499;-73
2022/09/18 10:23:17;;;;;;;0.73;0.50;;;15.20;81.10;;;;;;5082524;28;20028;-75
2022/09/18 10:25:51;;;;;;;2.95;0.45;;;15.20;81.20;;;;;;5080677;28;20483;-72
2022/09/18 10:28:16;;;;;;;0.80;0.68;;;15.10;81.00;;;;;;5074920;28;20595;-73
2022/09/18 10:31:01;;;;;;;0.52;0.35;;;15.20;81.00;;;;;;5075351;28;20036;-72
2022/09/18 10:33:39;;;;;;;2.72;0.45;;;15.20;80.70;;;;;;5075063;28;20023;-72
2022/09/18 10:36:18;;;;;;;0.70;0.50;;;15.20;80.70;;;;;;5075272;28;20408;-73
2022/09/18 10:38:45;;;;;;;1.05;0.55;;;15.10;80.80;;;;;;5083681;28;20384;-72
2022/09/18 10:41:15;;;;;;;0.47;0.47;;;15.10;81.00;;;;;;5072314;28;20067;-73
2022/09/18 10:44:13;;;;;;;1.77;0.65;;;15.20;80.90;;;;;;5078648;28;20059;-72
2022/09/18 10:46:49;;;;;;;0.35;0.35;;;15.30;80.80;;;;;;5091018;28;20042;-75
2022/09/18 10:49:21;;;;;;;0.40;0.40;;;15.30;80.80;;;;;;5084308;28;20027;-73
2022/09/18 10:51:47;;;;;;;2.10;0.50;;;15.30;80.70;;;;;;5080955;28;20035;-71
2022/09/18 10:54:16;;;;;;;0.30;0.30;;;15.30;81.40;;;;;;5080758;28;20028;-71
2022/09/18 10:56:42;;;;;;;2.40;0.60;;;15.30;80.80;;;;;;5082046;28;20431;-71
2022/09/18 10:59:29;;;;;;;0.45;0.45;;;15.40;80.60;;;;;;5075040;28;20092;-72
2022/09/18 11:01:56;;;;;;;0.93;0.35;;;15.40;80.70;;;;;;5071991;28;20093;-71
2022/09/18 11:04:22;;;;;;;0.43;0.43;;;15.30;80.20;;;;;;5074559;28;20024;-71
2022/09/18 11:06:48;;;;;;;0.93;0.77;;;15.30;80.00;;;;;;5075657;28;20039;-68
2022/09/18 11:09:20;;;;;;;2.03;0.50;;;15.20;80.00;;;;;;5076875;28;20032;-69
2022/09/18 11:11:50;;;;;;;0.70;0.40;;;15.20;80.10;;;;;;5089793;28;20020;-68
2022/09/18 11:14:23;;;;;;;2.13;0.50;;;15.30;80.20;;;;;;5091524;28;20028;-69
2022/09/18 11:16:53;;;;;;;0.90;0.43;;;15.30;80.20;;;;;;5093308;28;20032;-68
2022/09/18 11:19:28;;;;;;;0.47;0.47;;;15.30;80.20;;;;;;5081558;28;20102;-69
2022/09/18 11:21:58;;;;;;;1.65;0.40;;;15.30;80.30;;;;;;5085122;28;20034;-69
2022/09/18 11:24:25;;;;;;;0.85;0.57;;;15.30;80.20;;;;;;5080029;28;20113;-70
2022/09/18 11:26:54;;;;;;;2.40;0.50;;;15.20;80.10;;;;;;5095997;28;20021;-70
2022/09/18 11:29:30;;;;;;;0.65;0.60;;;15.20;80.10;;;;;;5079991;28;20021;-71
2022/09/18 11:32:09;;;;;;;1.38;0.50;;;15.20;80.30;;;;;;5078321;28;20358;-72
2022/09/18 11:34:44;;;;;;;1.30;0.85;;;15.20;80.30;;;;;;5083576;28;20579;-72
2022/09/18 11:37:13;;;;;;;0.43;0.32;;;15.20;80.20;;;;;;5087001;28;20044;-72
2022/09/18 11:39:43;;;;;;;0.43;0.35;;;15.10;80.30;;;;;;5073462;28;20487;-72
2022/09/18 11:42:13;;;;;;;0.60;0.50;;;15.20;80.40;;;;;;5078269;28;20035;-72
2022/09/18 11:44:39;;;;;;;0.35;0.35;;;15.20;80.40;;;;;;5089305;28;20499;-71
2022/09/18 11:47:43;;;;;;;0.30;0.30;;;15.20;80.40;;;;;;5093382;28;20032;-71
2022/09/18 11:50:19;;;;;;;1.10;0.88;;;15.20;80.30;;;;;;5078895;28;20103;-72
2022/09/18 11:52:52;;;;;;;0.47;0.47;;;15.00;80.60;;;;;;5083143;28;20020;-70
2022/09/18 11:55:43;;;;;;;0.40;0.30;;;15.00;80.70;;;;;;5074865;28;20595;-69
2022/09/18 11:58:24;;;;;;;0.32;0.32;;;15.00;80.80;;;;;;5086308;28;20443;-69
2022/09/18 12:01:24;;;;;;;1.05;0.60;;;15.00;80.90;;;;;;5089459;28;20024;-70
2022/09/18 12:04:06;;;;;;;2.53;0.40;;;15.00;80.80;;;;;;5087146;28;20063;-69
2022/09/18 12:06:55;;;;;;;0.98;0.47;;;15.00;80.60;;;;;;5091989;28;20020;-70
2022/09/18 12:09:44;;;;;;;0.40;0.40;;;15.00;80.60;;;;;;5092014;28;20032;-71
2022/09/18 12:12:26;;;;;;;0.52;0.45;;;15.00;80.60;;;;;;5086329;28;20108;-71
2022/09/18 12:15:02;;;;;;;1.40;0.65;;;15.00;80.60;;;;;;5075783;28;20040;-71
2022/09/18 12:17:35;;;;;;;2.63;0.55;;;15.10;80.60;;;;;;5081945;28;20020;-71
2022/09/18 12:20:07;;;;;;;0.77;0.63;;;15.10;80.50;;;;;;5076225;28;20036;-71
2022/09/18 12:22:48;;;;;;;0.30;0.30;;;15.10;80.40;;;;;;5081439;28;20058;-71
2022/09/18 12:25:15;;;;;;;0.55;0.35;;;15.10;80.30;;;;;;5076114;28;20039;-71
2022/09/18 12:27:52;;;;;;;1.35;0.57;;;15.10;80.40;;;;;;5076225;28;20066;-70
2022/09/18 12:30:19;;;;;;;0.95;0.50;;;15.10;80.30;;;;;;5090296;28;20029;-70
2022/09/18 12:33:21;;;;;;;0.57;0.40;;;15.10;80.50;;;;;;5077149;28;20040;-71
2022/09/18 12:36:33;;;;;;;2.33;1.15;;;15.10;80.50;;;;;;5062204;28;20411;-71
2022/09/18 12:39:28;;;;;;;1.67;0.43;;;15.10;80.50;;;;;;5049131;28;20084;-69
2022/09/18 12:42:17;;;;;;;0.73;0.50;;;15.10;80.40;;;;;;5080317;28;20024;-69
2022/09/18 12:45:16;;;;;;;1.85;0.40;;;15.10;80.30;;;;;;5081489;28;20064;-69
2022/09/18 12:48:18;;;;;;;0.63;0.40;;;15.10;80.10;;;;;;5073529;28;20024;-69
2022/09/18 12:50:56;;;;;;;0.93;0.28;;;15.20;80.10;;;;;;5084106;28;20049;-71
2022/09/18 12:53:37;;;;;;;2.35;0.63;;;15.20;80.10;;;;;;5076484;28;20421;-71
2022/09/18 12:56:22;;;;;;;0.40;0.40;;;15.20;79.90;;;;;;5080560;28;20498;-71
2022/09/18 12:59:19;;;;;;;0.95;0.52;;;15.20;80.00;;;;;;5068746;28;20484;-71
2022/09/18 13:02:12;;;;;;;0.35;0.30;;;15.30;80.10;;;;;;5092206;28;20391;-71
2022/09/18 13:04:47;;;;;;;0.45;0.35;;;15.30;80.20;;;;;;5079020;28;20032;-71
2022/09/18 13:07:19;;;;;;;0.50;0.50;;;15.30;80.30;;;;;;5077397;28;20032;-71
2022/09/18 13:09:48;;;;;;;3.33;0.32;;;15.30;80.30;;;;;;5085725;28;20033;-71
2022/09/18 13:12:35;;;;;;;0.52;0.43;;;15.30;80.30;;;;;;5079615;28;20055;-72
2022/09/18 13:15:20;;;;;;;0.57;0.43;;;15.30;80.40;;;;;;5072280;28;20036;-71